Terminal Aerodrome Forecast
Issued by NWS

Home | Current Version | Previous Version | Text Only | Print | Product List | Glossary On
Versions: 1 2 3 4 5 6 7 8 9 10 11 12 13
000
FTUS46 KHNX 190535
TAFMCE
TAF
KMCE 190535Z 1906/2006 10004KT P6SM BKN200
      TEMPO 1910/1913 2SM BR
     FM191300 10004KT 1SM BR SCT006 BKN120
      TEMPO 1917/1919 3SM BR
     FM191900 13007KT 4SM BR OVC060
      TEMPO 1920/1923 -RA OVC040
     FM192300 14008KT 4SM -SHRA BR BKN040=

USA.gov is the U.S. government's official web portal to all federal, state and local government web resources and services.